createdAt,value
2022-12-05T00:00:18.273Z,98471.38
2022-12-05T00:01:22.511Z,98476.59
2022-12-05T00:02:24.763Z,98470.53
2022-12-05T00:03:27.157Z,98473.16
2022-12-05T00:04:29.444Z,98477.41
2022-12-05T00:05:31.708Z,98476.75
2022-12-05T00:06:35.282Z,98487.06
2022-12-05T00:07:37.668Z,98496.69
2022-12-05T00:08:40.141Z,98490.47
2022-12-05T00:09:42.327Z,98493.09
2022-12-05T00:10:44.610Z,98487.88
2022-12-05T00:11:47.030Z,98488.03
2022-12-05T00:12:49.562Z,98493.25
2022-12-05T00:13:54.050Z,98495.88
2022-12-05T00:14:56.136Z,98499.47
2022-12-05T00:15:58.232Z,98498.50
2022-12-05T00:17:00.492Z,98498.50
2022-12-05T00:18:02.695Z,98506.34
2022-12-05T00:19:06.329Z,98501.78
2022-12-05T00:20:09.791Z,98502.75
2022-12-05T00:21:20.760Z,98505.22
2022-12-05T00:22:23.015Z,98507.03
2022-12-05T00:23:25.163Z,98503.56
2022-12-05T00:24:27.327Z,98505.34
2022-12-05T00:25:29.945Z,98508.78
2022-12-05T00:26:33.078Z,98507.84
2022-12-05T00:27:35.792Z,98505.34
2022-12-05T00:28:38.864Z,98496.69
2022-12-05T00:29:40.956Z,98496.69
2022-12-05T00:30:43.699Z,98499.19
2022-12-05T00:31:46.010Z,98500.13
2022-12-05T00:32:48.136Z,98509.78
2022-12-05T00:33:51.415Z,98503.56
2022-12-05T00:34:53.523Z,98510.59
2022-12-05T00:35:55.649Z,98505.34
2022-12-05T00:36:57.917Z,98514.03
2022-12-05T00:38:00.206Z,98512.09
2022-12-05T00:39:07.648Z,98507.84
2022-12-05T00:40:10.533Z,98509.63
2022-12-05T00:41:15.225Z,98508.78
2022-12-05T00:42:17.501Z,98503.72
2022-12-05T00:43:19.667Z,98512.38
2022-12-05T00:44:21.868Z,98506.19
2022-12-05T00:45:24.062Z,98510.44
2022-12-05T00:46:28.437Z,98513.88
2022-12-05T00:47:30.775Z,98509.63
2022-12-05T00:48:33.286Z,98509.63
2022-12-05T00:49:35.447Z,98506.19
2022-12-05T00:50:37.598Z,98509.78
2022-12-05T00:51:42.103Z,98513.19
2022-12-05T00:52:44.258Z,98505.34
2022-12-05T00:53:47.054Z,98500.13
2022-12-05T00:54:49.263Z,98503.56
2022-12-05T00:55:51.423Z,98497.50
2022-12-05T00:56:56.177Z,98494.09
2022-12-05T00:57:58.300Z,98501.78
2022-12-05T00:59:02.263Z,98495.72
2022-12-05T01:00:06.088Z,98503.44
2022-12-05T01:01:11.067Z,98508.78
2022-12-05T01:02:13.248Z,98512.25
2022-12-05T01:03:15.396Z,98510.44
2022-12-05T01:04:21.011Z,98502.59
2022-12-05T01:05:23.134Z,98504.53
2022-12-05T01:06:26.843Z,98513.06
2022-12-05T01:07:29.020Z,98517.47
2022-12-05T01:08:31.837Z,98520.91
2022-12-05T01:09:33.947Z,98512.25
2022-12-05T01:10:36.113Z,98515.69
2022-12-05T01:11:41.391Z,98515.69
2022-12-05T01:12:43.931Z,98517.31
2022-12-05T01:13:46.652Z,98512.09
2022-12-05T01:14:48.791Z,98521.72
2022-12-05T01:15:51.313Z,98518.28
2022-12-05T01:16:55.640Z,98526.63
2022-12-05T01:17:57.798Z,98530.22
2022-12-05T01:19:01.649Z,98526.78
2022-12-05T01:20:04.202Z,98530.22
2022-12-05T01:21:07.335Z,98526.78
2022-12-05T01:22:09.493Z,98539.88
2022-12-05T01:23:12.114Z,98532.03
2022-12-05T01:24:15.940Z,98536.44
2022-12-05T01:25:18.056Z,98532.03
2022-12-05T01:26:22.643Z,98536.28
2022-12-05T01:27:24.754Z,98540.69
2022-12-05T01:28:26.935Z,98546.72
2022-12-05T01:29:29.306Z,98549.34
2022-12-05T01:30:31.444Z,98550.97
2022-12-05T01:31:37.795Z,98558.81
2022-12-05T01:32:40.008Z,98557.19
2022-12-05T01:33:42.183Z,98557.19
2022-12-05T01:34:44.281Z,98557.19
2022-12-05T01:35:46.635Z,98556.22
2022-12-05T01:36:49.309Z,98553.59
2022-12-05T01:37:52.086Z,98558.81
2022-12-05T01:38:55.037Z,98557.19
2022-12-05T01:39:57.387Z,98551.16
2022-12-05T01:41:08.446Z,98558.81
2022-12-05T01:42:12.776Z,98561.59
2022-12-05T01:43:18.309Z,98557.19
2022-12-05T01:44:23.470Z,98561.78
2022-12-05T01:45:33.687Z,98567.00
2022-12-05T01:46:44.693Z,98558.34
2022-12-05T01:47:47.066Z,98560.13
2022-12-05T01:48:50.333Z,98560.13
2022-12-05T01:49:52.697Z,98555.84
2022-12-05T01:50:55.229Z,98563.56
2022-12-05T01:52:06.027Z,98558.47
2022-12-05T01:53:08.270Z,98560.28
2022-12-05T01:54:11.810Z,98557.66
2022-12-05T01:55:17.530Z,98554.75
2022-12-05T01:56:20.508Z,98555.84
2022-12-05T01:57:23.821Z,98553.41
2022-12-05T01:58:33.897Z,98548.19
2022-12-05T01:59:41.586Z,98549.81
2022-12-05T02:00:44.393Z,98555.19
2022-12-05T02:01:46.827Z,98557.97
2022-12-05T02:02:59.454Z,98556.19
2022-12-05T02:04:02.752Z,98560.59
2022-12-05T02:05:27.771Z,98556.34
2022-12-05T02:06:31.965Z,98555.69
2022-12-05T02:07:35.032Z,98553.09
2022-12-05T02:08:38.743Z,98548.03
2022-12-05T02:09:40.942Z,98557.66
2022-12-05T02:10:52.446Z,98549.13
2022-12-05T02:11:58.233Z,98558.13
2022-12-05T02:13:23.044Z,98553.88
2022-12-05T02:14:39.159Z,98559.25
2022-12-05T02:15:53.920Z,98562.84
2022-12-05T02:17:07.532Z,98562.22
2022-12-05T02:18:52.932Z,98568.25
2022-12-05T02:20:00.933Z,98569.22
2022-12-05T02:21:12.436Z,98568.56
2022-12-05T02:22:28.534Z,98571.03
2022-12-05T02:23:54.759Z,98572.13
2022-12-05T02:25:19.545Z,98563.63
2022-12-05T02:27:02.682Z,98576.72
2022-12-05T02:28:28.098Z,98579.66
2022-12-05T02:29:48.218Z,98579.00
2022-12-05T02:30:56.400Z,98583.41
2022-12-05T02:32:15.228Z,98574.75
2022-12-05T02:33:20.486Z,98582.59
2022-12-05T02:34:25.691Z,98579.16
2022-12-05T02:35:36.885Z,98579.16
2022-12-05T02:36:50.681Z,98580.78
2022-12-05T02:38:17.637Z,98580.13
2022-12-05T02:39:52.292Z,98583.84
2022-12-05T02:41:19.967Z,98583.19
2022-12-05T02:42:43.710Z,98584.19
2022-12-05T02:43:56.933Z,98574.88
2022-12-05T02:45:07.297Z,98577.47
2022-12-05T02:46:14.215Z,98587.13
2022-12-05T02:47:21.422Z,98587.13
2022-12-05T02:48:26.786Z,98590.56
2022-12-05T02:49:34.967Z,98588.91
2022-12-05T02:50:38.900Z,98587.94
2022-12-05T02:51:48.227Z,98588.75
2022-12-05T02:52:54.366Z,98588.09
2022-12-05T02:54:01.273Z,98596.59
2022-12-05T02:55:04.176Z,98597.41
2022-12-05T02:56:07.581Z,98596.59
2022-12-05T02:57:11.743Z,98604.28
2022-12-05T02:58:23.291Z,98605.09
2022-12-05T02:59:25.470Z,98605.91
2022-12-05T03:00:27.598Z,98610.31
2022-12-05T03:01:32.505Z,98611.94
2022-12-05T03:02:35.300Z,98616.19
2022-12-05T03:03:37.897Z,98618.00
2022-12-05T03:04:40.194Z,98621.59
2022-12-05T03:06:21.599Z,98624.84
2022-12-05T03:07:25.860Z,98629.09
2022-12-05T03:08:34.983Z,98630.91
2022-12-05T03:09:56.124Z,98632.69
2022-12-05T03:11:00.872Z,98626.50
2022-12-05T03:12:15.247Z,98638.75
2022-12-05T03:13:30.650Z,98633.50
2022-12-05T03:14:38.996Z,98629.94
2022-12-05T03:15:56.415Z,98636.13
2022-12-05T03:17:03.276Z,98637.75
2022-12-05T03:18:14.141Z,98634.19
2022-12-05T03:19:27.057Z,98639.41
2022-12-05T03:20:45.060Z,98637.75
2022-12-05T03:22:13.992Z,98628.94
2022-12-05T03:23:25.036Z,98625.50
2022-12-05T03:24:28.065Z,98628.94
2022-12-05T03:25:50.713Z,98630.63
2022-12-05T03:27:34.893Z,98627.31
2022-12-05T03:28:46.776Z,98627.47
2022-12-05T03:29:51.600Z,98634.50
2022-12-05T03:30:56.992Z,98629.44
2022-12-05T03:31:59.105Z,98632.19
2022-12-05T03:33:23.507Z,98633.84
2022-12-05T03:34:52.896Z,98643.31
2022-12-05T03:36:18.272Z,98639.06
2022-12-05T03:37:38.842Z,98638.09
2022-12-05T03:38:54.391Z,98634.66
2022-12-05T03:40:08.538Z,98636.28
2022-12-05T03:41:35.449Z,98633.03
2022-12-05T03:42:46.952Z,98628.59
2022-12-05T03:43:51.873Z,98626.16
2022-12-05T03:45:05.229Z,98619.13
2022-12-05T03:46:18.633Z,98621.75
2022-12-05T03:47:47.928Z,98628.59
2022-12-05T03:49:13.414Z,98626.81
2022-12-05T03:50:25.899Z,98627.63
2022-12-05T03:51:46.097Z,98628.44
2022-12-05T03:53:18.572Z,98623.38
2022-12-05T03:54:24.421Z,98627.63
2022-12-05T03:55:29.598Z,98621.59
2022-12-05T03:56:54.539Z,98625.69
2022-12-05T03:58:01.426Z,98618.81
2022-12-05T03:59:19.975Z,98624.03
2022-12-05T04:00:24.274Z,98624.69
2022-12-05T04:01:30.562Z,98627.31
2022-12-05T04:02:45.512Z,98627.31
2022-12-05T04:03:54.556Z,98631.72
2022-12-05T04:05:09.921Z,98630.91
2022-12-05T04:06:19.499Z,98639.41
2022-12-05T04:07:22.968Z,98635.97
2022-12-05T04:08:43.122Z,98637.63
2022-12-05T04:09:50.142Z,98635.84
2022-12-05T04:10:56.817Z,98635.03
2022-12-05T04:12:06.194Z,98622.78
2022-12-05T04:13:17.810Z,98622.78
2022-12-05T04:14:28.232Z,98617.53
2022-12-05T04:15:52.770Z,98616.72
2022-12-05T04:17:03.236Z,98632.25
2022-12-05T04:18:07.165Z,98630.63
2022-12-05T04:19:15.045Z,98624.41
2022-12-05T04:20:50.395Z,98628.81
2022-12-05T04:21:56.005Z,98634.19
2022-12-05T04:22:58.467Z,98637.75
2022-12-05T04:24:19.331Z,98642.00
2022-12-05T04:25:35.236Z,98641.19
2022-12-05T04:26:42.572Z,98652.47
2022-12-05T04:28:21.933Z,98648.91
2022-12-05T04:29:32.637Z,98650.69
2022-12-05T04:30:54.819Z,98644.63
2022-12-05T04:32:04.047Z,98646.28
2022-12-05T04:33:15.148Z,98650.69
2022-12-05T04:34:19.293Z,98644.63
2022-12-05T04:35:35.725Z,98653.16
2022-12-05T04:36:59.800Z,98656.59
2022-12-05T04:38:21.543Z,98654.78
2022-12-05T04:39:30.014Z,98653.16
2022-12-05T04:40:40.733Z,98648.91
2022-12-05T04:41:51.963Z,98644.50
2022-12-05T04:42:56.604Z,98647.94
2022-12-05T04:44:05.182Z,98645.31
2022-12-05T04:45:10.161Z,98640.91
2022-12-05T04:46:16.387Z,98647.94
2022-12-05T04:47:23.493Z,98646.78
2022-12-05T04:48:27.977Z,98639.13
2022-12-05T04:49:33.073Z,98645.16
2022-12-05T04:50:36.961Z,98641.72
2022-12-05T04:51:40.037Z,98646.94
2022-12-05T04:52:47.442Z,98653.00
2022-12-05T04:53:58.786Z,98648.75
2022-12-05T04:55:09.499Z,98648.91
2022-12-05T04:56:16.548Z,98649.03
2022-12-05T04:57:31.020Z,98649.84
2022-12-05T04:58:33.426Z,98656.22
2022-12-05T04:59:35.956Z,98655.25
2022-12-05T05:01:03.757Z,98656.88
2022-12-05T05:02:09.562Z,98643.81
2022-12-05T05:03:26.956Z,98648.38
2022-12-05T05:04:38.068Z,98649.19
2022-12-05T05:05:44.972Z,98655.25
2022-12-05T05:06:47.190Z,98649.34
2022-12-05T05:07:51.703Z,98650.00
2022-12-05T05:08:56.904Z,98645.59
2022-12-05T05:09:59.351Z,98650.84
2022-12-05T05:11:21.248Z,98650.69
2022-12-05T05:12:23.405Z,98648.22
2022-12-05T05:13:25.656Z,98656.88
2022-12-05T05:14:27.827Z,98651.53
2022-12-05T05:15:30.091Z,98656.59
2022-12-05T05:16:35.528Z,98648.59
2022-12-05T05:17:37.762Z,98651.19
2022-12-05T05:18:39.919Z,98649.41
2022-12-05T05:19:42.101Z,98652.03
2022-12-05T05:20:44.462Z,98655.44
2022-12-05T05:21:46.644Z,98654.47
2022-12-05T05:22:49.776Z,98655.28
2022-12-05T05:23:52.718Z,98651.84
2022-12-05T05:24:54.850Z,98651.84
2022-12-05T05:25:57.456Z,98651.69
2022-12-05T05:26:59.618Z,98654.31
2022-12-05T05:28:01.792Z,98661.34
2022-12-05T05:29:04.768Z,98656.94
2022-12-05T05:30:07.565Z,98659.53
2022-12-05T05:31:10.137Z,98665.59
2022-12-05T05:32:12.308Z,98668.03
2022-12-05T05:33:14.606Z,98662.00
2022-12-05T05:34:16.737Z,98661.00
2022-12-05T05:35:19.255Z,98668.84
2022-12-05T05:36:23.608Z,98667.91
2022-12-05T05:37:25.744Z,98666.94
2022-12-05T05:38:28.413Z,98667.91
2022-12-05T05:39:30.602Z,98665.13
2022-12-05T05:40:37.044Z,98666.78
2022-12-05T05:41:39.340Z,98667.75
2022-12-05T05:42:46.750Z,98667.59
2022-12-05T05:43:50.266Z,98675.59
2022-12-05T05:44:52.402Z,98674.78
2022-12-05T05:45:54.495Z,98673.78
2022-12-05T05:46:56.779Z,98684.25
2022-12-05T05:47:59.020Z,98688.50
2022-12-05T05:49:01.793Z,98682.47
2022-12-05T05:50:04.586Z,98685.06
2022-12-05T05:51:08.685Z,98686.06
2022-12-05T05:52:10.884Z,98678.22
2022-12-05T05:53:13.075Z,98686.88
2022-12-05T05:54:15.241Z,98688.81
2022-12-05T05:55:17.488Z,98682.75
2022-12-05T05:56:21.986Z,98678.38
2022-12-05T05:57:24.361Z,98680.13
2022-12-05T05:58:26.444Z,98687.97
2022-12-05T05:59:28.579Z,98686.22
2022-12-05T06:00:30.702Z,98681.81
2022-12-05T06:01:32.881Z,98687.16
2022-12-05T06:02:36.351Z,98687.84
2022-12-05T06:03:39.387Z,98687.84
2022-12-05T06:04:41.668Z,98681.94
2022-12-05T06:05:47.494Z,98693.19
2022-12-05T06:06:52.211Z,98692.25
2022-12-05T06:07:54.409Z,98694.06
2022-12-05T06:08:56.905Z,98691.44
2022-12-05T06:09:59.242Z,98700.09
2022-12-05T06:11:06.397Z,98706.16
2022-12-05T06:12:08.561Z,98707.13
2022-12-05T06:13:10.665Z,98711.50
2022-12-05T06:14:12.816Z,98714.13
2022-12-05T06:15:15.057Z,98717.59
2022-12-05T06:16:18.824Z,98720.19
2022-12-05T06:17:21.128Z,98728.03
2022-12-05T06:18:23.340Z,98720.31
2022-12-05T06:19:25.525Z,98725.41
2022-12-05T06:20:27.803Z,98728.84
2022-12-05T06:21:29.961Z,98718.53
2022-12-05T06:22:32.353Z,98720.31
2022-12-05T06:23:35.965Z,98719.34
2022-12-05T06:24:38.550Z,98723.75
2022-12-05T06:25:40.647Z,98730.78
2022-12-05T06:26:43.481Z,98717.88
2022-12-05T06:27:45.597Z,98717.72
2022-12-05T06:28:48.527Z,98720.31
2022-12-05T06:29:50.699Z,98708.06
2022-12-05T06:30:53.609Z,98704.63
2022-12-05T06:31:55.810Z,98711.50
2022-12-05T06:32:57.933Z,98711.50
2022-12-05T06:34:02.678Z,98718.53
2022-12-05T06:35:15.046Z,98706.28
2022-12-05T06:36:20.182Z,98711.38
2022-12-05T06:37:22.613Z,98700.09
2022-12-05T06:38:24.724Z,98701.72
2022-12-05T06:39:26.911Z,98700.75
2022-12-05T06:40:29.053Z,98697.31
2022-12-05T06:41:31.424Z,98706.16
2022-12-05T06:42:33.590Z,98712.03
2022-12-05T06:43:35.673Z,98713.00
2022-12-05T06:44:37.847Z,98710.41
2022-12-05T06:45:40.391Z,98710.22
2022-12-05T06:46:42.549Z,98716.44
2022-12-05T06:47:44.771Z,98719.06
2022-12-05T06:48:47.014Z,98723.97
2022-12-05T06:49:49.173Z,98720.53
2022-12-05T06:50:52.789Z,98716.94
2022-12-05T06:51:55.186Z,98718.75
2022-12-05T06:52:57.398Z,98709.91
2022-12-05T06:53:59.491Z,98715.97
2022-12-05T06:55:01.703Z,98716.63
2022-12-05T06:56:07.577Z,98718.41
2022-12-05T06:57:10.026Z,98719.41
2022-12-05T06:58:12.145Z,98721.84
2022-12-05T06:59:14.287Z,98726.25
2022-12-05T07:00:35.269Z,98726.91
2022-12-05T07:01:43.896Z,98733.94
2022-12-05T07:02:46.298Z,98733.94
2022-12-05T07:03:51.747Z,98743.59
2022-12-05T07:04:53.914Z,98747.03
2022-12-05T07:05:56.036Z,98744.41
2022-12-05T07:06:58.543Z,98752.13
2022-12-05T07:08:00.733Z,98751.16
2022-12-05T07:09:03.641Z,98752.25
2022-12-05T07:10:06.857Z,98752.94
2022-12-05T07:11:09.072Z,98753.91
2022-12-05T07:12:14.945Z,98758.97
2022-12-05T07:13:17.036Z,98759.16
2022-12-05T07:14:45.390Z,98759.97
2022-12-05T07:15:41.438Z,98764.22
2022-12-05T07:16:43.736Z,98765.03
2022-12-05T07:17:45.872Z,98764.06
2022-12-05T07:18:47.964Z,98767.50
2022-12-05T07:19:51.399Z,98764.06
2022-12-05T07:21:14.318Z,98765.69
2022-12-05T07:22:18.365Z,98770.09
2022-12-05T07:23:20.457Z,98773.53
2022-12-05T07:24:22.576Z,98771.91
2022-12-05T07:25:24.884Z,98780.06
2022-12-05T07:26:27.198Z,98775.34
2022-12-05T07:27:29.352Z,98776.31
2022-12-05T07:28:31.473Z,98777.13
2022-12-05T07:29:33.660Z,98782.34
2022-12-05T07:30:35.804Z,98780.56
2022-12-05T07:31:38.029Z,98784.81
2022-12-05T07:32:40.185Z,98777.78
2022-12-05T07:33:42.675Z,98779.75
2022-12-05T07:34:44.770Z,98769.94
2022-12-05T07:35:46.903Z,98776.16
2022-12-05T07:36:49.043Z,98776.00
2022-12-05T07:37:51.206Z,98772.56
2022-12-05T07:38:58.639Z,98777.63
2022-12-05T07:40:01.175Z,98768.00
2022-12-05T07:41:13.060Z,98766.50
2022-12-05T07:42:15.737Z,98775.19
2022-12-05T07:43:17.852Z,98770.75
2022-12-05T07:44:20.015Z,98770.75
2022-12-05T07:45:22.522Z,98774.19
2022-12-05T07:46:26.781Z,98776.66
2022-12-05T07:47:31.145Z,98769.78
2022-12-05T07:48:33.668Z,98775.69
2022-12-05T07:49:36.837Z,98766.03
2022-12-05T07:50:39.069Z,98764.25
2022-12-05T07:51:41.696Z,98766.03
2022-12-05T07:52:43.899Z,98761.63
2022-12-05T07:53:46.658Z,98764.09
2022-12-05T07:54:48.798Z,98762.44
2022-12-05T07:55:51.311Z,98766.72
2022-12-05T07:56:53.501Z,98769.34
2022-12-05T07:57:55.708Z,98767.53
2022-12-05T07:58:57.936Z,98771.94
2022-12-05T08:00:00.301Z,98782.41
2022-12-05T08:01:11.955Z,98783.06
2022-12-05T08:02:14.315Z,98790.91
2022-12-05T08:03:16.532Z,98786.66
2022-12-05T08:04:18.791Z,98784.88
2022-12-05T08:05:20.942Z,98787.31
2022-12-05T08:06:29.127Z,98782.09
2022-12-05T08:07:31.307Z,98779.47
2022-12-05T08:08:33.550Z,98783.91
2022-12-05T08:09:35.689Z,98782.91
2022-12-05T08:10:37.953Z,98795.16
2022-12-05T08:11:40.370Z,98789.28
2022-12-05T08:12:42.535Z,98789.13
2022-12-05T08:13:45.143Z,98793.38
2022-12-05T08:14:47.275Z,98792.56
2022-12-05T08:15:49.491Z,98784.06
2022-12-05T08:16:51.693Z,98794.34
2022-12-05T08:17:53.879Z,98790.75
2022-12-05T08:18:57.096Z,98795.00
2022-12-05T08:19:59.500Z,98800.25
2022-12-05T08:21:03.772Z,98799.44
2022-12-05T08:22:05.928Z,98786.34
2022-12-05T08:23:08.027Z,98795.84
2022-12-05T08:24:10.783Z,98797.31
2022-12-05T08:25:12.932Z,98800.75
2022-12-05T08:26:20.405Z,98797.31
2022-12-05T08:27:22.542Z,98799.94
2022-12-05T08:28:24.642Z,98808.59
2022-12-05T08:29:26.912Z,98804.06
2022-12-05T08:30:29.175Z,98807.63
2022-12-05T08:31:33.514Z,98812.72
2022-12-05T08:32:35.612Z,98809.28
2022-12-05T08:33:38.525Z,98811.75
2022-12-05T08:34:40.626Z,98805.81
2022-12-05T08:35:42.693Z,98813.66
2022-12-05T08:36:45.949Z,98813.66
2022-12-05T08:37:48.099Z,98819.59
2022-12-05T08:38:50.279Z,98813.53
2022-12-05T08:39:52.419Z,98821.22
2022-12-05T08:40:54.636Z,98820.56
2022-12-05T08:41:56.797Z,98823.03
2022-12-05T08:42:58.918Z,98823.31
2022-12-05T08:44:09.924Z,98818.91
2022-12-05T08:45:12.091Z,98822.50
2022-12-05T08:46:14.369Z,98824.28
2022-12-05T08:47:17.382Z,98825.09
2022-12-05T08:48:22.437Z,98827.72
2022-12-05T08:49:28.352Z,98830.50
2022-12-05T08:50:30.684Z,98832.28
2022-12-05T08:51:32.937Z,98825.41
2022-12-05T08:52:34.663Z,98832.59
2022-12-05T08:53:43.814Z,98829.69
2022-12-05T08:54:46.283Z,98833.09
2022-12-05T08:55:48.126Z,98829.69
2022-12-05T08:56:53.490Z,98830.34
2022-12-05T08:57:55.196Z,98837.38
2022-12-05T08:59:03.175Z,98835.44
2022-12-05T09:00:09.029Z,98839.97
2022-12-05T09:01:12.176Z,98842.44
2022-12-05T09:02:14.166Z,98838.19
2022-12-05T09:03:15.993Z,98835.44
2022-12-05T09:04:17.843Z,98838.06
2022-12-05T09:05:28.312Z,98840.50
2022-12-05T09:06:32.015Z,98842.16
2022-12-05T09:07:33.846Z,98841.16
2022-12-05T09:08:35.979Z,98842.97
2022-12-05T09:09:37.922Z,98854.09
2022-12-05T09:10:39.707Z,98851.47
2022-12-05T09:11:48.747Z,98854.91
2022-12-05T09:12:51.268Z,98853.13
2022-12-05T09:13:55.915Z,98852.28
2022-12-05T09:14:57.948Z,98853.94
2022-12-05T09:16:05.837Z,98861.47
2022-12-05T09:17:08.294Z,98860.66
2022-12-05T09:18:10.401Z,98861.47
2022-12-05T09:19:17.753Z,98861.34
2022-12-05T09:20:19.902Z,98858.72
2022-12-05T09:21:28.920Z,98863.78
2022-12-05T09:22:30.702Z,98861.19
2022-12-05T09:23:32.553Z,98865.59
2022-12-05T09:24:34.936Z,98858.41
2022-12-05T09:25:36.646Z,98871.31
2022-12-05T09:26:39.582Z,98868.56
2022-12-05T09:27:41.373Z,98864.13
2022-12-05T09:28:44.271Z,98870.03
2022-12-05T09:29:46.126Z,98867.41
2022-12-05T09:31:01.857Z,98868.09
2022-12-05T09:32:03.898Z,98865.63
2022-12-05T09:33:05.683Z,98872.34
2022-12-05T09:34:07.436Z,98865.34
2022-12-05T09:35:09.582Z,98868.59
2022-12-05T09:36:24.201Z,98868.44
2022-12-05T09:37:41.153Z,98868.44
2022-12-05T09:38:43.401Z,98874.50
2022-12-05T09:39:45.415Z,98870.91
2022-12-05T09:41:05.904Z,98871.41
2022-12-05T09:42:18.131Z,98875.69
2022-12-05T09:43:32.536Z,98875.53
2022-12-05T09:45:25.800Z,98878.00
2022-12-05T09:46:59.106Z,98879.78
2022-12-05T09:48:23.374Z,98872.75
2022-12-05T09:49:26.878Z,98888.47
2022-12-05T09:50:40.450Z,98879.63
2022-12-05T09:51:49.657Z,98885.69
2022-12-05T09:53:09.276Z,98885.69
2022-12-05T09:54:13.434Z,98880.44
2022-12-05T09:55:19.677Z,98882.75
2022-12-05T09:56:30.703Z,98883.56
2022-12-05T09:57:44.174Z,98881.75
2022-12-05T09:58:52.815Z,98885.19
2022-12-05T09:59:54.729Z,98885.19
2022-12-05T10:01:31.007Z,98883.28
2022-12-05T10:03:21.816Z,98882.31
2022-12-05T10:04:35.261Z,98883.94
2022-12-05T10:05:50.982Z,98884.75
2022-12-05T10:07:30.245Z,98880.50
2022-12-05T10:09:09.972Z,98883.94
2022-12-05T10:10:53.581Z,98881.31
2022-12-05T10:12:10.778Z,98885.72
2022-12-05T10:14:02.474Z,98890.00
2022-12-05T10:15:26.568Z,98892.59
2022-12-05T10:16:46.007Z,98883.94
2022-12-05T10:18:31.555Z,98886.41
2022-12-05T10:19:42.508Z,98885.56
2022-12-05T10:20:56.885Z,98887.22
2022-12-05T10:22:17.373Z,98885.25
2022-12-05T10:24:00.133Z,98878.38
2022-12-05T10:25:01.563Z,98878.22
2022-12-05T10:26:09.456Z,98875.59
2022-12-05T10:27:23.365Z,98876.25
2022-12-05T10:28:52.455Z,98882.19
2022-12-05T10:30:14.522Z,98876.13
2022-12-05T10:31:22.794Z,98876.13
2022-12-05T10:32:36.920Z,98882.03
2022-12-05T10:33:49.237Z,98882.84
2022-12-05T10:34:58.401Z,98878.25
2022-12-05T10:36:00.424Z,98879.25
2022-12-05T10:37:21.877Z,98885.13
2022-12-05T10:38:31.590Z,98882.53
2022-12-05T10:39:33.536Z,98881.53
2022-12-05T10:40:46.394Z,98884.81
2022-12-05T10:41:48.297Z,98885.78
2022-12-05T10:42:50.628Z,98883.00
2022-12-05T10:43:53.131Z,98887.28
2022-12-05T10:45:08.713Z,98883.53
2022-12-05T10:46:17.024Z,98876.66
2022-12-05T10:47:19.315Z,98880.94
2022-12-05T10:48:22.995Z,98877.97
2022-12-05T10:49:27.298Z,98878.97
2022-12-05T10:50:37.370Z,98873.41
2022-12-05T10:51:40.020Z,98873.41
2022-12-05T10:52:41.907Z,98866.19
2022-12-05T10:53:49.669Z,98866.91
2022-12-05T10:55:05.417Z,98865.75
2022-12-05T10:56:38.827Z,98862.00
2022-12-05T10:57:40.575Z,98860.34
2022-12-05T10:58:58.471Z,98863.63
2022-12-05T11:00:15.559Z,98865.91
2022-12-05T11:01:18.216Z,98864.94
2022-12-05T11:02:31.367Z,98860.38
2022-12-05T11:03:42.408Z,98866.28
2022-12-05T11:04:45.616Z,98855.81
2022-12-05T11:05:51.206Z,98860.06
2022-12-05T11:07:25.199Z,98863.34
2022-12-05T11:09:03.011Z,98859.72
2022-12-05T11:09:57.538Z,98862.19
2022-12-05T11:11:04.780Z,98866.44
2022-12-05T11:12:09.219Z,98865.63
2022-12-05T11:13:26.047Z,98868.09
2022-12-05T11:14:29.819Z,98873.34
2022-12-05T11:15:31.997Z,98872.38
2022-12-05T11:16:39.023Z,98869.75
2022-12-05T11:17:40.965Z,98867.94
2022-12-05T11:18:44.701Z,98874.16
2022-12-05T11:19:46.448Z,98868.09
2022-12-05T11:20:48.186Z,98868.94
2022-12-05T11:21:51.373Z,98867.28
2022-12-05T11:22:56.499Z,98871.38
2022-12-05T11:24:35.514Z,98870.56
2022-12-05T11:25:37.712Z,98864.66
2022-12-05T11:26:39.445Z,98876.63
2022-12-05T11:27:41.614Z,98868.94
2022-12-05T11:28:43.406Z,98869.75
2022-12-05T11:30:04.498Z,98868.75
2022-12-05T11:31:28.018Z,98872.38
2022-12-05T11:32:33.061Z,98866.31
2022-12-05T11:33:36.537Z,98863.69
2022-12-05T11:34:48.736Z,98864.50
2022-12-05T11:35:59.081Z,98859.25
2022-12-05T11:37:18.222Z,98863.69
2022-12-05T11:38:27.179Z,98866.31
2022-12-05T11:39:29.018Z,98862.88
2022-12-05T11:40:38.654Z,98854.03
2022-12-05T11:42:11.402Z,98864.50
2022-12-05T11:43:46.523Z,98862.06
2022-12-05T11:45:13.185Z,98863.69
2022-12-05T11:46:48.414Z,98863.69
2022-12-05T11:48:11.082Z,98863.00
2022-12-05T11:49:29.439Z,98866.44
2022-12-05T11:50:45.939Z,98861.06
2022-12-05T11:52:39.046Z,98865.16
2022-12-05T11:54:09.352Z,98855.81
2022-12-05T11:55:42.749Z,98864.19
2022-12-05T11:57:33.734Z,98854.50
2022-12-05T11:59:24.713Z,98856.81
2022-12-05T12:01:03.907Z,98853.38
2022-12-05T12:02:31.000Z,98849.94
2022-12-05T12:04:00.088Z,98852.22
2022-12-05T12:05:44.867Z,98838.16
2022-12-05T12:07:27.267Z,98843.28
2022-12-05T12:09:07.356Z,98851.97
2022-12-05T12:10:29.476Z,98852.59
2022-12-05T12:11:47.439Z,98845.56
2022-12-05T12:13:19.406Z,98845.25
2022-12-05T12:15:12.767Z,98840.66
2022-12-05T12:16:39.606Z,98842.31
2022-12-05T12:17:58.429Z,98842.97
2022-12-05T12:19:32.429Z,98847.06
2022-12-05T12:20:45.974Z,98843.44
2022-12-05T12:22:12.153Z,98847.72
2022-12-05T12:23:22.690Z,98845.91
2022-12-05T12:24:33.198Z,98845.09
2022-12-05T12:26:06.891Z,98843.13
2022-12-05T12:27:43.920Z,98846.56
2022-12-05T12:28:57.443Z,98844.75
2022-12-05T12:30:11.020Z,98840.50
2022-12-05T12:31:20.835Z,98842.31
2022-12-05T12:33:10.751Z,98842.13
2022-12-05T12:34:52.991Z,98848.06
2022-12-05T12:36:29.827Z,98843.63
2022-12-05T12:38:00.499Z,98846.44
2022-12-05T12:39:26.227Z,98847.91
2022-12-05T12:40:54.943Z,98846.09
2022-12-05T12:42:23.985Z,98843.47
2022-12-05T12:43:54.275Z,98847.91
2022-12-05T12:45:31.742Z,98849.53
2022-12-05T12:46:59.658Z,98847.72
2022-12-05T12:48:37.382Z,98837.25
2022-12-05T12:50:20.782Z,98851.34
2022-12-05T12:51:22.635Z,98838.22
2022-12-05T12:52:33.394Z,98837.91
2022-12-05T12:54:04.433Z,98842.31
2022-12-05T12:55:24.353Z,98841.97
2022-12-05T12:56:28.818Z,98843.94
2022-12-05T12:58:12.700Z,98847.06
2022-12-05T12:59:32.495Z,98841.97
2022-12-05T13:01:05.637Z,98846.25
2022-12-05T13:02:39.236Z,98842.97
2022-12-05T13:03:52.031Z,98839.53
2022-12-05T13:05:38.985Z,98844.78
2022-12-05T13:06:50.014Z,98848.03
2022-12-05T13:08:02.434Z,98844.78
2022-12-05T13:09:16.325Z,98845.44
2022-12-05T13:10:35.757Z,98842.63
2022-12-05T13:11:45.193Z,98841.81
2022-12-05T13:12:49.113Z,98837.38
2022-12-05T13:13:55.807Z,98832.84
2022-12-05T13:15:35.722Z,98827.41
2022-12-05T13:16:46.087Z,98829.88
2022-12-05T13:17:49.333Z,98835.13
2022-12-05T13:18:51.093Z,98829.06
2022-12-05T13:19:53.991Z,98827.91
2022-12-05T13:21:01.124Z,98836.41
2022-12-05T13:22:06.008Z,98832.81
2022-12-05T13:23:12.622Z,98827.56
2022-12-05T13:24:19.306Z,98843.97
2022-12-05T13:25:29.496Z,98831.69
2022-12-05T13:26:36.721Z,98836.75
2022-12-05T13:27:38.532Z,98839.38
2022-12-05T13:28:55.576Z,98834.97
2022-12-05T13:30:02.408Z,98842.66
2022-12-05T13:31:06.364Z,98839.22
2022-12-05T13:32:38.438Z,98843.47
2022-12-05T13:33:49.991Z,98832.97